createdAt,value
2018-10-02T00:00:27.871Z,4.60
2018-10-02T00:02:55.172Z,4.83
2018-10-02T00:05:22.490Z,4.67
2018-10-02T00:07:49.803Z,4.90
2018-10-02T00:10:17.166Z,4.13
2018-10-02T00:12:44.516Z,4.57
2018-10-02T00:15:11.819Z,4.23
2018-10-02T00:17:39.138Z,4.20
2018-10-02T00:20:06.444Z,4.50
2018-10-02T00:22:33.755Z,3.67
2018-10-02T00:25:01.144Z,3.97
2018-10-02T00:27:28.441Z,3.50
2018-10-02T00:29:55.752Z,3.53
2018-10-02T00:32:23.207Z,4.40
2018-10-02T00:34:50.398Z,3.80
2018-10-02T00:37:17.719Z,3.90
2018-10-02T00:39:45.035Z,3.07
2018-10-02T00:42:12.369Z,3.90
2018-10-02T00:44:39.672Z,3.13
2018-10-02T00:47:07.002Z,3.53
2018-10-02T00:49:34.331Z,3.97
2018-10-02T00:52:01.630Z,3.70
2018-10-02T00:54:28.935Z,3.77
2018-10-02T00:56:56.271Z,3.53
2018-10-02T00:59:23.582Z,3.10
2018-10-02T01:01:50.953Z,3.80
2018-10-02T01:04:18.283Z,4.30
2018-10-02T01:06:45.604Z,3.90
2018-10-02T01:09:12.954Z,2.60
2018-10-02T01:11:40.281Z,3.93
2018-10-02T01:14:07.576Z,4.17
2018-10-02T01:16:34.884Z,2.97
2018-10-02T01:19:02.204Z,2.97
2018-10-02T01:21:29.517Z,2.60
2018-10-02T01:23:56.884Z,3.30
2018-10-02T01:26:24.225Z,2.97
2018-10-02T01:28:51.523Z,2.93
2018-10-02T01:31:18.838Z,2.60
2018-10-02T01:33:46.171Z,2.37
2018-10-02T01:36:13.484Z,3.00
2018-10-02T01:38:40.771Z,3.73
2018-10-02T01:41:08.102Z,2.33
2018-10-02T01:43:35.448Z,3.20
2018-10-02T01:46:02.777Z,2.53
2018-10-02T01:48:30.099Z,2.30
2018-10-02T01:50:57.411Z,3.53
2018-10-02T01:53:24.747Z,2.77
2018-10-02T01:55:52.063Z,2.97
2018-10-02T01:58:19.367Z,2.90
2018-10-02T02:00:46.689Z,2.90
2018-10-02T02:03:14.039Z,2.80
2018-10-02T02:05:41.555Z,4.03
2018-10-02T02:08:08.946Z,2.33
2018-10-02T02:10:36.422Z,2.33
2018-10-02T02:13:03.772Z,2.60
2018-10-02T02:15:31.066Z,2.57
2018-10-02T02:17:58.371Z,2.67
2018-10-02T02:20:25.692Z,3.17
2018-10-02T02:22:53.110Z,2.50
2018-10-02T02:25:20.435Z,3.10
2018-10-02T02:27:47.750Z,4.40
2018-10-02T02:30:15.711Z,2.30
2018-10-02T02:32:43.073Z,2.77
2018-10-02T02:35:10.451Z,2.33
2018-10-02T02:37:37.778Z,2.53
2018-10-02T02:40:05.267Z,2.77
2018-10-02T02:42:32.563Z,3.00
2018-10-02T02:44:59.908Z,2.90
2018-10-02T02:47:27.266Z,2.07
2018-10-02T02:49:54.560Z,2.20
2018-10-02T02:52:21.899Z,2.90
2018-10-02T02:54:49.183Z,2.17
2018-10-02T02:57:16.511Z,2.13
2018-10-02T02:59:43.823Z,2.30
2018-10-02T03:02:11.151Z,2.30
2018-10-02T03:04:38.483Z,2.50
2018-10-02T03:07:05.789Z,2.50
2018-10-02T03:09:33.115Z,2.50
2018-10-02T03:12:00.476Z,2.57
2018-10-02T03:14:27.836Z,2.20
2018-10-02T03:16:55.187Z,2.27
2018-10-02T03:19:22.500Z,2.50
2018-10-02T03:21:49.834Z,2.27
2018-10-02T03:24:17.138Z,1.87
2018-10-02T03:26:44.454Z,2.77
2018-10-02T03:29:11.812Z,2.13
2018-10-02T03:31:39.134Z,2.00
2018-10-02T03:34:06.439Z,1.90
2018-10-02T03:36:33.780Z,2.10
2018-10-02T03:39:01.107Z,2.23
2018-10-02T03:41:28.416Z,2.13
2018-10-02T03:43:55.726Z,2.47
2018-10-02T03:46:23.092Z,2.40
2018-10-02T03:48:50.432Z,2.23
2018-10-02T03:51:17.711Z,1.97
2018-10-02T03:53:45.019Z,2.40
2018-10-02T03:56:12.359Z,2.13
2018-10-02T03:58:39.671Z,2.40
2018-10-02T04:01:07.107Z,2.60
2018-10-02T04:03:34.459Z,3.00
2018-10-02T04:06:01.733Z,2.20
2018-10-02T04:08:29.064Z,2.90
2018-10-02T04:10:56.411Z,3.60
2018-10-02T04:13:23.782Z,3.33
2018-10-02T04:15:51.071Z,3.20
2018-10-02T04:18:18.382Z,3.10
2018-10-02T04:20:45.712Z,2.40
2018-10-02T04:23:12.994Z,2.33
2018-10-02T04:25:40.316Z,3.10
2018-10-02T04:28:07.675Z,3.10
2018-10-02T04:30:34.975Z,2.90
2018-10-02T04:33:02.308Z,3.10
2018-10-02T04:35:29.630Z,3.10
2018-10-02T04:37:56.994Z,3.27
2018-10-02T04:40:24.331Z,2.57
2018-10-02T04:42:51.655Z,2.27
2018-10-02T04:45:18.991Z,2.60
2018-10-02T04:47:46.357Z,2.67
2018-10-02T04:50:13.684Z,3.00
2018-10-02T04:52:41.022Z,2.27
2018-10-02T04:55:08.430Z,2.07
2018-10-02T04:57:35.705Z,1.90
2018-10-02T05:00:03.053Z,2.33
2018-10-02T05:02:30.377Z,1.87
2018-10-02T05:04:57.754Z,2.47
2018-10-02T05:07:25.071Z,2.20
2018-10-02T05:09:52.403Z,1.97
2018-10-02T05:12:19.725Z,2.17
2018-10-02T05:14:47.102Z,1.90
2018-10-02T05:17:14.428Z,2.27
2018-10-02T05:19:41.756Z,2.03
2018-10-02T05:22:09.067Z,2.17
2018-10-02T05:24:36.401Z,2.10
2018-10-02T05:27:04.459Z,2.60
2018-10-02T05:29:31.784Z,3.37
2018-10-02T05:31:59.112Z,2.27
2018-10-02T05:34:26.452Z,1.73
2018-10-02T05:36:53.803Z,2.30
2018-10-02T05:39:21.153Z,2.63
2018-10-02T05:41:48.476Z,2.97
2018-10-02T05:44:15.822Z,2.70
2018-10-02T05:46:43.193Z,3.63
2018-10-02T05:49:10.537Z,2.83
2018-10-02T05:51:37.969Z,2.47
2018-10-02T05:54:05.291Z,2.87
2018-10-02T05:56:32.636Z,3.10
2018-10-02T05:58:59.974Z,4.10
2018-10-02T06:01:27.384Z,2.90
2018-10-02T06:03:55.346Z,2.93
2018-10-02T06:06:22.692Z,3.33
2018-10-02T06:08:50.008Z,3.40
2018-10-02T06:11:17.372Z,3.30
2018-10-02T06:13:44.799Z,3.50
2018-10-02T06:16:12.138Z,2.93
2018-10-02T06:18:39.488Z,2.60
2018-10-02T06:21:06.807Z,3.03
2018-10-02T06:23:34.139Z,3.30
2018-10-02T06:26:01.474Z,3.03
2018-10-02T06:28:28.859Z,3.17
2018-10-02T06:30:56.348Z,2.73
2018-10-02T06:33:23.675Z,3.20
2018-10-02T06:35:50.999Z,2.80
2018-10-02T06:38:18.420Z,3.00
2018-10-02T06:40:45.716Z,2.70
2018-10-02T06:43:13.032Z,2.70
2018-10-02T06:45:40.395Z,2.97
2018-10-02T06:48:07.724Z,3.00
2018-10-02T06:50:35.110Z,3.30
2018-10-02T06:53:02.400Z,2.60
2018-10-02T06:55:29.996Z,2.77
2018-10-02T06:57:57.295Z,3.47
2018-10-02T07:00:24.622Z,3.50
2018-10-02T07:02:54.043Z,2.60
2018-10-02T07:05:21.760Z,2.70
2018-10-02T07:07:49.224Z,2.80
2018-10-02T07:10:16.531Z,3.13
2018-10-02T07:12:43.928Z,2.77
2018-10-02T07:15:11.336Z,2.50
2018-10-02T07:17:38.643Z,2.87
2018-10-02T07:20:06.031Z,3.20
2018-10-02T07:22:33.341Z,2.80
2018-10-02T07:25:00.685Z,2.90
2018-10-02T07:27:28.200Z,3.00
2018-10-02T07:29:55.344Z,2.77
2018-10-02T07:32:22.723Z,2.57
2018-10-02T07:34:50.012Z,3.27
2018-10-02T07:37:17.421Z,2.80
2018-10-02T07:39:44.732Z,3.23
2018-10-02T07:42:12.083Z,3.00
2018-10-02T07:44:39.501Z,2.40
2018-10-02T07:47:06.722Z,3.00
2018-10-02T07:49:34.081Z,2.40
2018-10-02T07:52:01.392Z,2.10
2018-10-02T07:54:28.740Z,2.37
2018-10-02T07:56:56.137Z,3.07
2018-10-02T07:59:23.455Z,2.60
2018-10-02T08:01:50.729Z,2.80
2018-10-02T08:04:18.080Z,2.67
2018-10-02T08:06:45.425Z,2.83
2018-10-02T08:09:12.939Z,2.70
2018-10-02T08:11:40.305Z,2.80
2018-10-02T08:14:07.628Z,3.07
2018-10-02T08:16:34.956Z,2.47
2018-10-02T08:19:02.301Z,2.50
2018-10-02T08:21:29.686Z,2.87
2018-10-02T08:23:57.041Z,2.67
2018-10-02T08:26:24.356Z,2.50
2018-10-02T08:28:51.643Z,2.27
2018-10-02T08:31:18.977Z,2.90
2018-10-02T08:33:46.302Z,2.97
2018-10-02T08:36:13.721Z,2.13
2018-10-02T08:38:40.977Z,2.60
2018-10-02T08:41:08.259Z,2.17
2018-10-02T08:43:35.674Z,2.40
2018-10-02T08:46:02.893Z,2.20
2018-10-02T08:48:30.259Z,2.70
2018-10-02T08:50:57.631Z,2.60
2018-10-02T08:53:24.991Z,2.50
2018-10-02T08:55:52.290Z,2.53
2018-10-02T08:58:19.602Z,2.80
2018-10-02T09:00:47.029Z,2.10
2018-10-02T09:03:14.354Z,2.50
2018-10-02T09:05:41.633Z,2.07
2018-10-02T09:08:08.957Z,2.37
2018-10-02T09:10:36.267Z,2.50
2018-10-02T09:13:03.639Z,2.37
2018-10-02T09:15:30.965Z,2.97
2018-10-02T09:17:58.228Z,2.40
2018-10-02T09:20:25.552Z,2.27
2018-10-02T09:22:52.888Z,2.87
2018-10-02T09:25:20.217Z,2.40
2018-10-02T09:27:47.599Z,3.13
2018-10-02T09:30:14.926Z,2.73
2018-10-02T09:32:42.203Z,2.33
2018-10-02T09:35:09.632Z,2.30
2018-10-02T09:37:36.951Z,2.90
2018-10-02T09:40:04.340Z,2.53
2018-10-02T09:42:31.641Z,3.03
2018-10-02T09:44:58.958Z,2.97
2018-10-02T09:47:26.300Z,2.77
2018-10-02T09:49:54.423Z,2.50
2018-10-02T09:52:21.668Z,2.50
2018-10-02T09:54:49.024Z,1.90
2018-10-02T09:57:16.330Z,2.43
2018-10-02T09:59:43.680Z,2.20
2018-10-02T10:02:11.011Z,2.30
2018-10-02T10:04:38.320Z,2.53
2018-10-02T10:07:05.660Z,2.70
2018-10-02T10:09:33.437Z,3.27
2018-10-02T10:12:01.478Z,3.10
2018-10-02T10:14:28.827Z,2.27
2018-10-02T10:16:56.157Z,2.47
2018-10-02T10:19:24.084Z,2.73
2018-10-02T10:21:51.414Z,3.50
2018-10-02T10:24:18.723Z,3.00
2018-10-02T10:26:46.043Z,2.53
2018-10-02T10:29:13.369Z,3.33
2018-10-02T10:31:41.318Z,2.70
2018-10-02T10:34:08.634Z,3.83
2018-10-02T10:36:36.032Z,2.90
2018-10-02T10:39:05.236Z,2.60
2018-10-02T10:41:32.584Z,3.43
2018-10-02T10:43:59.923Z,3.53
2018-10-02T10:46:27.365Z,2.50
2018-10-02T10:48:54.628Z,3.60
2018-10-02T10:51:22.051Z,3.70
2018-10-02T10:53:49.353Z,2.93
2018-10-02T10:56:16.658Z,3.50
2018-10-02T10:58:44.122Z,3.37
2018-10-02T11:01:11.317Z,3.27
2018-10-02T11:03:38.637Z,3.30
2018-10-02T11:06:06.171Z,3.37
2018-10-02T11:08:33.519Z,3.53
2018-10-02T11:11:00.855Z,3.33
2018-10-02T11:13:28.284Z,2.80
2018-10-02T11:15:55.682Z,3.10
2018-10-02T11:18:23.008Z,3.50
2018-10-02T11:20:50.371Z,4.20
2018-10-02T11:23:17.800Z,3.53
2018-10-02T11:25:45.165Z,2.93
2018-10-02T11:28:12.451Z,3.70
2018-10-02T11:30:39.784Z,3.27
2018-10-02T11:33:07.115Z,3.70
2018-10-02T11:35:34.504Z,4.03
2018-10-02T11:38:01.781Z,4.40
2018-10-02T11:40:29.119Z,4.63
2018-10-02T11:42:56.463Z,3.57
2018-10-02T11:45:23.788Z,4.30
2018-10-02T11:47:51.140Z,4.50
2018-10-02T11:50:18.478Z,3.90
2018-10-02T11:52:45.818Z,4.13
2018-10-02T11:55:13.208Z,3.67
2018-10-02T11:57:40.555Z,4.50
2018-10-02T12:00:08.093Z,6.73
2018-10-02T12:02:35.482Z,4.27
2018-10-02T12:05:02.801Z,3.77
2018-10-02T12:07:30.140Z,4.20
2018-10-02T12:09:57.482Z,4.60
2018-10-02T12:12:24.805Z,4.10
2018-10-02T12:14:52.190Z,4.60
2018-10-02T12:17:19.492Z,4.57
2018-10-02T12:19:47.048Z,6.00
2018-10-02T12:22:14.203Z,5.00
2018-10-02T12:24:41.528Z,4.03
2018-10-02T12:27:08.911Z,4.83
2018-10-02T12:29:36.223Z,5.20
2018-10-02T12:32:03.581Z,4.37
2018-10-02T12:34:30.996Z,4.83
2018-10-02T12:36:58.299Z,4.50
2018-10-02T12:39:25.680Z,4.40
2018-10-02T12:41:52.968Z,3.80
2018-10-02T12:44:20.313Z,4.20
2018-10-02T12:46:47.672Z,4.20
2018-10-02T12:49:14.969Z,3.80
2018-10-02T12:51:42.283Z,4.23
2018-10-02T12:54:09.616Z,4.20
2018-10-02T12:56:36.948Z,4.03
2018-10-02T12:59:04.281Z,4.03
2018-10-02T13:01:31.597Z,4.33
2018-10-02T13:03:58.912Z,3.50
2018-10-02T13:06:26.267Z,4.27
2018-10-02T13:08:53.589Z,3.50
2018-10-02T13:11:20.889Z,3.83
2018-10-02T13:13:48.203Z,4.13
2018-10-02T13:16:15.526Z,5.13
2018-10-02T13:18:42.863Z,3.93
2018-10-02T13:21:10.209Z,4.57
2018-10-02T13:23:37.511Z,4.20
2018-10-02T13:26:04.892Z,4.13
2018-10-02T13:28:32.235Z,3.93
2018-10-02T13:30:59.636Z,5.07
2018-10-02T13:33:26.948Z,4.60
2018-10-02T13:35:54.307Z,4.13
2018-10-02T13:38:21.632Z,4.70
2018-10-02T13:40:48.947Z,5.87
2018-10-02T13:43:16.290Z,4.87
2018-10-02T13:45:43.611Z,4.30
2018-10-02T13:48:10.948Z,4.70
2018-10-02T13:50:38.357Z,5.00
2018-10-02T13:53:05.598Z,5.53
2018-10-02T13:55:33.002Z,6.00
2018-10-02T13:58:00.329Z,4.67
2018-10-02T14:00:27.627Z,6.20
2018-10-02T14:02:54.994Z,5.00
2018-10-02T14:05:22.336Z,3.73
2018-10-02T14:07:49.659Z,5.27
2018-10-02T14:10:16.975Z,4.10
2018-10-02T14:12:44.305Z,4.60
2018-10-02T14:15:11.660Z,4.07
2018-10-02T14:17:39.158Z,4.13
2018-10-02T14:20:06.494Z,4.03
2018-10-02T14:22:33.842Z,4.70
2018-10-02T14:25:01.249Z,4.53
2018-10-02T14:27:28.557Z,4.83
2018-10-02T14:29:56.769Z,4.43
2018-10-02T14:32:24.097Z,4.20
2018-10-02T14:34:51.436Z,5.30
2018-10-02T14:37:18.776Z,4.20
2018-10-02T14:39:46.100Z,5.00
2018-10-02T14:42:13.498Z,4.67
2018-10-02T14:44:40.832Z,3.83
2018-10-02T14:47:08.269Z,4.87
2018-10-02T14:49:35.656Z,5.10
2018-10-02T14:52:03.027Z,4.40
2018-10-02T14:54:30.603Z,5.60
2018-10-02T14:56:58.031Z,4.07
2018-10-02T14:59:25.432Z,4.80
2018-10-02T15:01:52.676Z,5.67
2018-10-02T15:04:20.021Z,4.77
2018-10-02T15:06:47.349Z,4.53
2018-10-02T15:09:14.933Z,3.60
2018-10-02T15:11:42.274Z,4.43
2018-10-02T15:14:09.628Z,4.03
2018-10-02T15:16:37.060Z,3.97
2018-10-02T15:19:04.299Z,4.10
2018-10-02T15:21:31.603Z,3.93
2018-10-02T15:23:59.067Z,3.17
2018-10-02T15:26:26.327Z,2.87
2018-10-02T15:28:53.661Z,2.30
2018-10-02T15:31:21.052Z,2.33
2018-10-02T15:33:48.330Z,2.37
2018-10-02T15:36:15.655Z,2.03
2018-10-02T15:38:43.086Z,2.20
2018-10-02T15:41:10.757Z,2.03
2018-10-02T15:43:38.080Z,2.20
2018-10-02T15:46:05.446Z,2.23
2018-10-02T15:48:32.788Z,2.23
2018-10-02T15:51:00.116Z,1.70
2018-10-02T15:53:27.940Z,1.53
2018-10-02T15:55:55.262Z,1.97
2018-10-02T15:58:22.992Z,1.40
2018-10-02T16:00:50.443Z,2.30
2018-10-02T16:03:18.303Z,2.90
2018-10-02T16:05:45.640Z,1.67
2018-10-02T16:08:12.947Z,1.70
2018-10-02T16:10:40.386Z,2.03
2018-10-02T16:13:07.733Z,3.40
2018-10-02T16:15:35.709Z,2.30
2018-10-02T16:18:03.382Z,1.63
2018-10-02T16:20:30.902Z,2.00
2018-10-02T16:22:58.612Z,1.90
2018-10-02T16:25:26.335Z,1.80
2018-10-02T16:27:53.792Z,1.87
2018-10-02T16:30:21.540Z,1.50
2018-10-02T16:32:48.866Z,2.40
2018-10-02T16:35:16.411Z,2.87
2018-10-02T16:37:43.756Z,1.30
2018-10-02T16:40:11.076Z,1.73
2018-10-02T16:42:38.532Z,1.50
2018-10-02T16:45:06.211Z,1.60
2018-10-02T16:47:33.536Z,1.90
2018-10-02T16:50:01.169Z,1.70
2018-10-02T16:52:28.524Z,1.47
2018-10-02T16:54:55.890Z,1.90
2018-10-02T16:57:23.465Z,1.40
2018-10-02T16:59:51.303Z,1.60
2018-10-02T17:02:18.686Z,1.70
2018-10-02T17:04:45.992Z,1.53
2018-10-02T17:07:13.341Z,2.20
2018-10-02T17:09:40.645Z,1.33
2018-10-02T17:12:08.169Z,1.70
2018-10-02T17:14:35.479Z,1.87
2018-10-02T17:17:02.831Z,1.40
2018-10-02T17:19:30.172Z,1.30
2018-10-02T17:21:57.881Z,1.43
2018-10-02T17:24:25.169Z,1.10
2018-10-02T17:26:52.488Z,0.97
2018-10-02T17:29:20.359Z,1.33
2018-10-02T17:31:48.041Z,1.73
2018-10-02T17:34:15.371Z,1.23
2018-10-02T17:36:42.786Z,1.43
2018-10-02T17:39:10.144Z,1.20
2018-10-02T17:41:37.629Z,1.70
2018-10-02T17:44:05.109Z,1.87
2018-10-02T17:46:32.523Z,1.90
2018-10-02T17:48:59.944Z,1.73
2018-10-02T17:51:27.373Z,1.70
2018-10-02T17:53:54.744Z,1.73
2018-10-02T17:56:22.188Z,2.00
2018-10-02T17:58:49.641Z,1.60
2018-10-02T18:01:17.078Z,2.00
2018-10-02T18:03:44.407Z,1.63
2018-10-02T18:06:11.856Z,1.87
2018-10-02T18:08:39.186Z,1.70
2018-10-02T18:11:06.498Z,2.30
2018-10-02T18:13:33.828Z,2.33
2018-10-02T18:16:01.150Z,1.70
2018-10-02T18:18:28.496Z,1.90
2018-10-02T18:20:55.822Z,2.10
2018-10-02T18:23:23.167Z,1.90
2018-10-02T18:25:50.533Z,1.90
2018-10-02T18:28:17.848Z,1.90
2018-10-02T18:30:45.173Z,2.20
2018-10-02T18:33:12.621Z,2.27
2018-10-02T18:35:40.197Z,2.20
2018-10-02T18:38:07.511Z,2.53
2018-10-02T18:40:34.896Z,2.60
2018-10-02T18:43:02.318Z,2.00
2018-10-02T18:45:29.739Z,2.13
2018-10-02T18:47:57.083Z,2.90
2018-10-02T18:50:24.392Z,2.27
2018-10-02T18:52:51.741Z,2.63
2018-10-02T18:55:19.073Z,2.90
2018-10-02T18:57:47.283Z,2.60
2018-10-02T19:00:14.646Z,2.77
2018-10-02T19:02:42.004Z,2.60
2018-10-02T19:05:09.336Z,3.47
2018-10-02T19:07:36.658Z,2.90
2018-10-02T19:10:04.101Z,3.30
2018-10-02T19:12:31.423Z,2.83
2018-10-02T19:14:58.733Z,3.30
2018-10-02T19:17:26.069Z,3.10
2018-10-02T19:19:53.393Z,2.90
2018-10-02T19:22:20.777Z,2.80
2018-10-02T19:24:48.187Z,3.60
2018-10-02T19:27:15.468Z,4.07
2018-10-02T19:29:42.871Z,3.80
2018-10-02T19:32:10.207Z,3.97
2018-10-02T19:34:37.560Z,4.20
2018-10-02T19:37:04.895Z,4.07
2018-10-02T19:39:32.269Z,4.10
2018-10-02T19:41:59.593Z,4.60
2018-10-02T19:44:26.937Z,4.70
2018-10-02T19:46:54.281Z,3.70
2018-10-02T19:49:21.631Z,4.40
2018-10-02T19:51:48.969Z,4.27
2018-10-02T19:54:16.280Z,4.67
2018-10-02T19:56:43.620Z,4.93
2018-10-02T19:59:10.964Z,4.63
2018-10-02T20:01:38.321Z,5.80
2018-10-02T20:04:05.816Z,5.17
2018-10-02T20:06:33.169Z,5.40
2018-10-02T20:09:00.557Z,5.23
2018-10-02T20:11:27.896Z,5.27
2018-10-02T20:13:55.236Z,5.40
2018-10-02T20:16:22.628Z,5.80
2018-10-02T20:18:49.954Z,5.77
2018-10-02T20:21:17.305Z,6.17
2018-10-02T20:23:44.594Z,6.13
2018-10-02T20:26:11.945Z,6.63
2018-10-02T20:28:39.264Z,5.27
2018-10-02T20:31:06.649Z,5.67
2018-10-02T20:33:33.981Z,6.67
2018-10-02T20:36:01.352Z,6.17
2018-10-02T20:38:28.729Z,6.80
2018-10-02T20:40:56.065Z,6.70
2018-10-02T20:43:23.388Z,5.73
2018-10-02T20:45:50.697Z,6.80
2018-10-02T20:48:18.057Z,6.53
2018-10-02T20:50:45.397Z,8.10
2018-10-02T20:53:12.708Z,7.17
2018-10-02T20:55:40.022Z,6.73
2018-10-02T20:58:07.391Z,7.50
2018-10-02T21:00:34.799Z,7.70
2018-10-02T21:03:02.141Z,8.00
2018-10-02T21:05:29.478Z,7.47
2018-10-02T21:07:56.815Z,8.30
2018-10-02T21:10:24.193Z,7.27
2018-10-02T21:12:51.474Z,8.30
2018-10-02T21:15:18.865Z,7.27
2018-10-02T21:17:46.153Z,7.00
2018-10-02T21:20:13.550Z,8.43
2018-10-02T21:22:40.880Z,8.77
2018-10-02T21:25:08.190Z,7.70
2018-10-02T21:27:35.604Z,9.23
2018-10-02T21:30:02.925Z,8.70
2018-10-02T21:32:30.285Z,9.33
2018-10-02T21:34:57.585Z,9.40
2018-10-02T21:37:24.911Z,8.60
2018-10-02T21:39:52.310Z,8.93
2018-10-02T21:42:19.604Z,8.70
2018-10-02T21:44:46.933Z,8.30
2018-10-02T21:47:14.259Z,8.47
2018-10-02T21:49:41.592Z,8.20
2018-10-02T21:52:08.947Z,8.30
2018-10-02T21:54:36.336Z,8.53
2018-10-02T21:57:03.775Z,8.20
2018-10-02T21:59:31.034Z,9.27
2018-10-02T22:01:58.401Z,7.50
2018-10-02T22:04:25.703Z,7.30
2018-10-02T22:06:53.036Z,7.77
2018-10-02T22:09:20.383Z,6.80
2018-10-02T22:11:47.705Z,8.37
2018-10-02T22:14:15.054Z,7.83
2018-10-02T22:16:42.376Z,8.10
2018-10-02T22:19:09.796Z,8.60
2018-10-02T22:21:37.134Z,7.90
2018-10-02T22:24:04.560Z,7.77
2018-10-02T22:26:31.819Z,7.27
2018-10-02T22:28:59.143Z,7.77
2018-10-02T22:31:26.492Z,6.70
2018-10-02T22:33:53.840Z,6.97
2018-10-02T22:36:21.138Z,6.70
2018-10-02T22:38:48.496Z,7.30
2018-10-02T22:41:15.921Z,6.97
2018-10-02T22:43:43.736Z,6.80
2018-10-02T22:46:11.113Z,6.73
2018-10-02T22:48:38.433Z,6.57
2018-10-02T22:51:05.808Z,7.27
2018-10-02T22:53:34.068Z,6.60
2018-10-02T22:56:01.383Z,7.03
2018-10-02T22:58:28.724Z,6.13
2018-10-02T23:00:56.025Z,6.63
2018-10-02T23:03:23.361Z,5.87
2018-10-02T23:05:50.692Z,6.17
2018-10-02T23:08:17.995Z,6.23
2018-10-02T23:10:45.429Z,6.23
2018-10-02T23:13:12.754Z,6.10
2018-10-02T23:15:40.068Z,6.30
2018-10-02T23:18:07.408Z,6.43
2018-10-02T23:20:34.747Z,7.20
2018-10-02T23:23:02.098Z,7.10
2018-10-02T23:25:29.426Z,6.50
2018-10-02T23:27:56.773Z,6.87
2018-10-02T23:30:24.156Z,7.27
2018-10-02T23:32:51.519Z,7.13
2018-10-02T23:35:18.808Z,6.50
2018-10-02T23:37:46.168Z,7.00
2018-10-02T23:40:13.688Z,7.20
2018-10-02T23:42:41.008Z,7.50
2018-10-02T23:45:08.341Z,6.50
2018-10-02T23:47:35.647Z,8.20
2018-10-02T23:50:02.966Z,7.27
2018-10-02T23:52:30.300Z,8.33
2018-10-02T23:54:57.645Z,7.97
2018-10-02T23:57:24.967Z,8.60
2018-10-02T23:59:52.310Z,7.60
